createdAt,value
2022-12-04T00:00:34.109Z,2.10
2022-12-04T00:03:05.183Z,2.10
2022-12-04T00:05:35.853Z,2.20
2022-12-04T00:08:06.172Z,2.10
2022-12-04T00:10:36.349Z,2.20
2022-12-04T00:13:05.462Z,2.20
2022-12-04T00:15:34.620Z,2.30
2022-12-04T00:18:03.441Z,2.20
2022-12-04T00:20:32.758Z,2.20
2022-12-04T00:23:04.682Z,2.10
2022-12-04T00:25:37.864Z,2.10
2022-12-04T00:28:10.689Z,2.10
2022-12-04T00:30:43.834Z,2.10
2022-12-04T00:33:12.939Z,2.10
2022-12-04T00:35:42.424Z,2.20
2022-12-04T00:38:13.184Z,2.20
2022-12-04T00:40:42.342Z,2.10
2022-12-04T00:43:11.413Z,2.10
2022-12-04T00:45:41.559Z,2.20
2022-12-04T00:48:10.886Z,2.20
2022-12-04T00:50:40.893Z,2.10
2022-12-04T00:53:10.079Z,2.10
2022-12-04T00:55:42.032Z,2.10
2022-12-04T00:58:12.234Z,2.00
2022-12-04T01:00:43.697Z,2.00
2022-12-04T01:03:13.204Z,2.10
2022-12-04T01:05:43.234Z,2.10
2022-12-04T01:08:13.269Z,2.00
2022-12-04T01:10:44.448Z,2.10
2022-12-04T01:13:13.186Z,2.00
2022-12-04T01:15:44.058Z,2.00
2022-12-04T01:18:14.221Z,2.10
2022-12-04T01:20:49.213Z,2.10
2022-12-04T01:23:19.115Z,2.10
2022-12-04T01:26:03.600Z,2.10
2022-12-04T01:28:35.936Z,2.10
2022-12-04T01:31:06.982Z,2.10
2022-12-04T01:33:37.784Z,2.10
2022-12-04T01:36:09.680Z,2.10
2022-12-04T01:38:39.556Z,2.10
2022-12-04T01:41:11.051Z,2.20
2022-12-04T01:43:40.561Z,2.10
2022-12-04T01:46:10.188Z,2.10
2022-12-04T01:48:45.001Z,2.10
2022-12-04T01:51:19.117Z,2.10
2022-12-04T01:53:52.615Z,2.10
2022-12-04T01:56:27.223Z,2.10
2022-12-04T01:58:59.703Z,2.10
2022-12-04T02:01:31.281Z,2.10
2022-12-04T02:04:02.897Z,2.20
2022-12-04T02:06:32.070Z,2.20
2022-12-04T02:09:01.817Z,2.20
2022-12-04T02:11:40.070Z,2.10
2022-12-04T02:14:16.543Z,2.10
2022-12-04T02:16:52.003Z,2.10
2022-12-04T02:19:46.878Z,2.20
2022-12-04T02:22:26.752Z,2.20
2022-12-04T02:25:01.255Z,2.20
2022-12-04T02:27:59.993Z,2.20
2022-12-04T02:30:32.799Z,2.10
2022-12-04T02:33:08.960Z,2.10
2022-12-04T02:35:42.976Z,2.10
2022-12-04T02:38:19.149Z,2.00
2022-12-04T02:40:56.443Z,2.00
2022-12-04T02:43:29.472Z,2.10
2022-12-04T02:46:05.520Z,2.10
2022-12-04T02:48:38.161Z,2.10
2022-12-04T02:51:09.649Z,2.10
2022-12-04T02:53:42.047Z,2.00
2022-12-04T02:56:15.876Z,2.00
2022-12-04T02:58:48.991Z,1.90
2022-12-04T03:01:25.560Z,1.90
2022-12-04T03:03:59.662Z,1.90
2022-12-04T03:06:32.871Z,1.90
2022-12-04T03:09:07.385Z,1.90
2022-12-04T03:11:39.344Z,1.90
2022-12-04T03:14:15.189Z,1.90
2022-12-04T03:16:47.696Z,1.90
2022-12-04T03:19:25.832Z,1.90
2022-12-04T03:22:01.128Z,1.80
2022-12-04T03:24:34.579Z,1.80
2022-12-04T03:27:10.652Z,1.80
2022-12-04T03:29:44.764Z,1.80
2022-12-04T03:32:21.175Z,1.70
2022-12-04T03:34:58.016Z,1.70
2022-12-04T03:37:34.472Z,1.80
2022-12-04T03:40:08.045Z,1.80
2022-12-04T03:42:42.772Z,1.80
2022-12-04T03:45:20.236Z,1.80
2022-12-04T03:47:57.912Z,1.70
2022-12-04T03:56:54.468Z,1.70
2022-12-04T03:59:27.922Z,1.60
2022-12-04T04:02:02.215Z,1.50
2022-12-04T04:04:37.584Z,1.40
2022-12-04T04:07:12.947Z,1.40
2022-12-04T04:09:46.525Z,1.40
2022-12-04T04:12:21.258Z,1.40
2022-12-04T04:15:12.432Z,1.40
2022-12-04T04:18:02.891Z,1.40
2022-12-04T04:20:57.881Z,1.50
2022-12-04T04:23:48.545Z,1.40
2022-12-04T04:26:19.071Z,1.40
2022-12-04T04:28:49.138Z,1.40
2022-12-04T04:31:26.380Z,1.50
2022-12-04T04:34:02.978Z,1.40
2022-12-04T04:36:45.249Z,1.30
2022-12-04T04:39:26.310Z,1.30
2022-12-04T04:42:02.679Z,1.30
2022-12-04T04:44:41.056Z,1.30
2022-12-04T04:47:14.649Z,1.20
2022-12-04T04:49:46.612Z,1.20
2022-12-04T04:52:19.382Z,1.20
2022-12-04T04:54:49.388Z,1.20
2022-12-04T04:57:29.637Z,1.20
2022-12-04T04:59:59.564Z,1.30
2022-12-04T05:02:31.733Z,1.30
2022-12-04T05:05:05.563Z,1.20
2022-12-04T05:07:36.891Z,1.20
2022-12-04T05:10:08.041Z,1.20
2022-12-04T05:12:38.275Z,1.20
2022-12-04T05:15:09.424Z,1.30
2022-12-04T05:17:40.411Z,1.30
2022-12-04T05:20:09.126Z,1.30
2022-12-04T05:22:43.420Z,1.30
2022-12-04T05:25:13.005Z,1.30
2022-12-04T05:27:42.974Z,1.20
2022-12-04T05:30:13.334Z,1.30
2022-12-04T05:32:42.651Z,1.30
2022-12-04T05:35:13.481Z,1.20
2022-12-04T05:37:46.803Z,1.30
2022-12-04T05:40:20.360Z,1.20
2022-12-04T05:42:56.646Z,1.20
2022-12-04T05:45:31.258Z,1.20
2022-12-04T05:48:02.005Z,1.30
2022-12-04T05:50:35.383Z,1.40
2022-12-04T05:53:07.563Z,1.40
2022-12-04T05:55:37.465Z,1.40
2022-12-04T05:58:11.640Z,1.40
2022-12-04T06:00:41.813Z,1.40
2022-12-04T06:03:13.168Z,1.50
2022-12-04T06:05:42.573Z,1.40
2022-12-04T06:08:14.105Z,1.50
2022-12-04T06:10:44.172Z,1.50
2022-12-04T06:13:17.120Z,1.40
2022-12-04T06:15:46.880Z,1.40
2022-12-04T06:18:19.328Z,1.40
2022-12-04T06:20:50.823Z,1.40
2022-12-04T06:23:22.079Z,1.30
2022-12-04T06:25:51.275Z,1.40
2022-12-04T06:28:20.828Z,1.40
2022-12-04T06:30:50.312Z,1.50
2022-12-04T06:33:19.537Z,1.60
2022-12-04T06:35:49.386Z,1.50
2022-12-04T06:38:19.196Z,1.60
2022-12-04T06:40:52.532Z,1.70
2022-12-04T06:43:22.765Z,1.70
2022-12-04T06:46:02.346Z,1.60
2022-12-04T06:48:32.684Z,1.70
2022-12-04T06:51:03.554Z,1.70
2022-12-04T06:53:38.135Z,1.80
2022-12-04T06:56:13.653Z,1.80
2022-12-04T06:58:43.638Z,1.90
2022-12-04T07:01:20.609Z,1.90
2022-12-04T07:04:02.254Z,1.90
2022-12-04T07:06:38.128Z,1.80
2022-12-04T07:09:17.023Z,1.80
2022-12-04T07:11:51.447Z,1.90
2022-12-04T07:14:23.508Z,1.80
2022-12-04T07:16:56.309Z,1.90
2022-12-04T07:19:37.306Z,1.90
2022-12-04T07:22:11.953Z,1.90
2022-12-04T07:24:41.581Z,1.80
2022-12-04T07:27:19.326Z,1.90
2022-12-04T07:29:56.815Z,1.90
2022-12-04T07:32:29.196Z,2.00
2022-12-04T07:35:01.025Z,1.90
2022-12-04T07:37:30.865Z,2.00
2022-12-04T07:40:02.397Z,2.00
2022-12-04T07:42:39.073Z,1.90
2022-12-04T07:45:11.283Z,1.90
2022-12-04T07:47:40.856Z,1.90
2022-12-04T07:50:10.112Z,1.90
2022-12-04T07:52:39.312Z,1.90
2022-12-04T07:55:09.410Z,1.90
2022-12-04T07:57:39.768Z,2.00
2022-12-04T08:00:09.780Z,2.00
2022-12-04T08:02:41.013Z,2.00
2022-12-04T08:05:10.490Z,1.90
2022-12-04T08:07:39.713Z,2.00
2022-12-04T08:10:09.681Z,2.00
2022-12-04T08:12:42.702Z,2.00
2022-12-04T08:15:14.126Z,2.00
2022-12-04T08:17:44.868Z,2.00
2022-12-04T08:20:14.159Z,2.00
2022-12-04T08:22:43.854Z,2.00
2022-12-04T08:25:12.901Z,1.90
2022-12-04T08:27:47.749Z,1.90
2022-12-04T08:30:20.706Z,1.90
2022-12-04T08:32:50.850Z,2.00
2022-12-04T08:35:23.469Z,1.90
2022-12-04T08:37:55.678Z,2.00
2022-12-04T08:40:26.889Z,1.90
2022-12-04T08:43:01.442Z,2.00
2022-12-04T08:45:31.261Z,2.00
2022-12-04T08:48:03.844Z,2.10
2022-12-04T08:50:33.486Z,2.10
2022-12-04T08:53:05.153Z,2.10
2022-12-04T08:55:36.253Z,2.10
2022-12-04T08:58:13.403Z,2.10
2022-12-04T09:00:44.690Z,2.20
2022-12-04T09:03:27.547Z,2.20
2022-12-04T09:06:04.339Z,2.20
2022-12-04T09:08:35.512Z,2.20
2022-12-04T09:11:07.400Z,2.20
2022-12-04T09:13:45.157Z,2.20
2022-12-04T09:16:16.839Z,2.30
2022-12-04T09:18:48.186Z,2.40
2022-12-04T09:21:26.821Z,2.30
2022-12-04T09:23:58.693Z,2.30
2022-12-04T09:26:40.199Z,2.30
2022-12-04T09:29:20.024Z,2.30
2022-12-04T09:31:54.392Z,2.40
2022-12-04T09:34:23.641Z,2.40
2022-12-04T09:36:54.606Z,2.40
2022-12-04T09:39:31.241Z,2.30
2022-12-04T09:42:35.322Z,2.40
2022-12-04T09:45:15.429Z,2.40
2022-12-04T09:47:47.573Z,2.50
2022-12-04T09:50:24.701Z,2.50
2022-12-04T10:08:22.343Z,2.50
2022-12-04T10:11:06.414Z,2.50
2022-12-04T10:14:05.492Z,2.60
2022-12-04T10:16:47.905Z,2.60
2022-12-04T10:19:25.901Z,2.60
2022-12-04T10:22:11.336Z,2.70
2022-12-04T10:24:46.940Z,2.70
2022-12-04T10:27:25.543Z,2.70
2022-12-04T10:30:02.413Z,2.80
2022-12-04T10:32:33.297Z,2.90
2022-12-04T10:35:17.429Z,2.90
2022-12-04T10:37:47.877Z,2.90
2022-12-04T10:40:22.517Z,2.80
2022-12-04T10:42:59.181Z,2.80
2022-12-04T10:45:28.473Z,2.80
2022-12-04T10:47:58.224Z,2.90
2022-12-04T10:50:28.687Z,2.80
2022-12-04T10:52:59.150Z,2.80
2022-12-04T10:55:34.695Z,2.90
2022-12-04T10:58:04.519Z,2.90
2022-12-04T11:00:36.321Z,2.90
2022-12-04T11:03:11.916Z,2.90
2022-12-04T11:05:47.310Z,3.00
2022-12-04T11:08:26.426Z,3.00
2022-12-04T11:11:04.134Z,3.00
2022-12-04T11:13:34.037Z,3.00
2022-12-04T11:16:04.481Z,3.10
2022-12-04T11:18:35.834Z,3.00
2022-12-04T11:21:07.936Z,3.00
2022-12-04T11:23:44.102Z,3.00
2022-12-04T11:26:15.866Z,3.00
2022-12-04T11:28:49.827Z,3.10
2022-12-04T11:36:58.657Z,3.10
2022-12-04T11:39:32.855Z,3.20
2022-12-04T11:42:06.235Z,3.10
2022-12-04T11:44:37.935Z,3.10
2022-12-04T11:47:17.686Z,3.10
2022-12-04T11:50:02.382Z,3.00
2022-12-04T11:52:49.710Z,3.10
2022-12-04T11:55:28.591Z,3.10
2022-12-04T11:58:14.578Z,3.10
2022-12-04T12:00:52.966Z,3.10
2022-12-04T12:03:28.638Z,3.00
2022-12-04T12:06:20.384Z,3.00
2022-12-04T12:09:10.410Z,3.00
2022-12-04T12:11:45.564Z,3.00
2022-12-04T12:14:31.146Z,3.20
2022-12-04T12:17:13.017Z,3.10
2022-12-04T12:20:08.711Z,3.10
2022-12-04T12:23:00.586Z,3.10
2022-12-04T12:25:36.708Z,3.10
2022-12-04T12:28:18.583Z,3.20
2022-12-04T12:31:06.130Z,3.10
2022-12-04T12:33:39.180Z,3.10
2022-12-04T12:36:10.837Z,3.20
2022-12-04T12:38:45.677Z,3.20
2022-12-04T12:41:17.909Z,3.20
2022-12-04T12:43:51.809Z,3.20
2022-12-04T12:46:30.407Z,3.20
2022-12-04T12:49:03.909Z,3.20
2022-12-04T12:51:39.416Z,3.20
2022-12-04T12:54:17.424Z,3.30
2022-12-04T12:56:52.846Z,3.30
2022-12-04T12:59:24.290Z,3.40
2022-12-04T13:02:02.385Z,3.40
2022-12-04T13:04:38.030Z,3.40
2022-12-04T13:07:23.436Z,3.30
2022-12-04T13:10:04.931Z,3.30
2022-12-04T13:12:48.234Z,3.30
2022-12-04T13:15:27.833Z,3.30
2022-12-04T13:17:59.736Z,3.20
2022-12-04T13:20:34.248Z,3.20
2022-12-04T13:23:19.885Z,3.30
2022-12-04T17:49:45.075Z,3.60
2022-12-04T17:52:13.507Z,3.60
2022-12-04T17:54:42.491Z,3.60
2022-12-04T17:57:11.085Z,3.50
2022-12-04T17:59:40.889Z,3.60
2022-12-04T18:02:10.834Z,3.60
2022-12-04T18:04:41.756Z,3.50
2022-12-04T18:07:12.384Z,3.60
2022-12-04T18:09:41.147Z,3.60
2022-12-04T18:12:14.468Z,3.50
2022-12-04T18:14:44.078Z,3.50
2022-12-04T18:17:12.892Z,3.50
2022-12-04T18:19:41.864Z,3.60
2022-12-04T18:22:12.189Z,3.60
2022-12-04T18:24:41.116Z,3.60
2022-12-04T18:27:22.827Z,3.60
2022-12-04T18:29:51.996Z,3.60
2022-12-04T18:32:20.829Z,3.60
2022-12-04T18:34:50.156Z,3.60
2022-12-04T18:37:19.045Z,3.60
2022-12-04T18:39:49.953Z,3.60
2022-12-04T18:42:18.919Z,3.60
2022-12-04T18:44:49.960Z,3.70
2022-12-04T18:47:20.579Z,3.60
2022-12-04T18:49:50.095Z,3.60
2022-12-04T18:52:18.753Z,3.60
2022-12-04T18:54:47.309Z,3.60
2022-12-04T18:57:18.700Z,3.60
2022-12-04T18:59:48.079Z,3.60
2022-12-04T19:02:18.344Z,3.50
2022-12-04T19:04:46.913Z,3.50
2022-12-04T19:07:15.717Z,3.50
2022-12-04T19:10:20.711Z,3.60
2022-12-04T19:12:34.027Z,3.50
2022-12-04T19:15:02.877Z,3.50
2022-12-04T19:17:33.379Z,3.50
2022-12-04T19:20:02.285Z,3.50
2022-12-04T19:22:31.746Z,3.50
2022-12-04T19:25:00.304Z,3.60
2022-12-04T19:27:29.619Z,3.60
2022-12-04T19:29:58.651Z,3.60
2022-12-04T19:32:27.786Z,3.50
2022-12-04T19:34:58.131Z,3.50
2022-12-04T19:37:27.343Z,3.50
2022-12-04T19:39:56.712Z,3.50
2022-12-04T19:42:25.609Z,3.50
2022-12-04T19:44:54.381Z,3.40
2022-12-04T19:47:23.174Z,3.40
2022-12-04T19:49:52.339Z,3.40
2022-12-04T19:52:22.638Z,3.40
2022-12-04T19:54:55.310Z,3.40
2022-12-04T19:57:27.464Z,3.40
2022-12-04T19:59:56.265Z,3.40
2022-12-04T20:02:25.457Z,3.40
2022-12-04T20:04:54.749Z,3.40
2022-12-04T20:07:24.974Z,3.30
2022-12-04T20:09:56.572Z,3.40
2022-12-04T20:12:25.717Z,3.40
2022-12-04T20:14:54.941Z,3.40
2022-12-04T20:17:24.072Z,3.40
2022-12-04T20:19:57.414Z,3.40
2022-12-04T20:22:32.660Z,3.40
2022-12-04T20:25:01.683Z,3.20
2022-12-04T20:27:31.553Z,3.20
2022-12-04T20:30:00.214Z,3.20
2022-12-04T20:32:29.254Z,3.20
2022-12-04T20:35:03.620Z,3.20
2022-12-04T20:37:38.994Z,3.20
2022-12-04T20:40:09.716Z,3.30
2022-12-04T20:42:38.438Z,3.30
2022-12-04T20:45:08.849Z,3.30
2022-12-04T20:47:38.023Z,3.20
2022-12-04T20:50:10.779Z,3.30
2022-12-04T20:52:41.152Z,3.30
2022-12-04T20:55:11.044Z,3.30
2022-12-04T20:57:39.648Z,3.40
2022-12-04T21:00:09.280Z,3.30
2022-12-04T21:02:38.005Z,3.30
2022-12-04T21:05:07.250Z,3.30
2022-12-04T21:07:36.031Z,3.20
2022-12-04T21:10:07.441Z,3.20
2022-12-04T21:12:53.754Z,3.30
2022-12-04T21:15:39.225Z,3.30
2022-12-04T21:18:07.697Z,3.30
2022-12-04T21:20:36.230Z,3.30
2022-12-04T21:23:04.924Z,3.20
2022-12-04T21:25:35.100Z,3.20
2022-12-04T21:28:03.789Z,3.20
2022-12-04T21:30:33.600Z,3.20
2022-12-04T21:33:02.247Z,3.20
2022-12-04T21:35:30.783Z,3.20
2022-12-04T21:37:59.171Z,3.20
2022-12-04T21:40:27.602Z,3.30
2022-12-04T21:43:00.960Z,3.30
2022-12-04T21:45:29.443Z,3.20
2022-12-04T21:47:58.966Z,3.30
2022-12-04T21:50:27.816Z,3.30
2022-12-04T21:52:57.662Z,3.40
2022-12-04T21:55:26.141Z,3.40
2022-12-04T21:57:54.625Z,3.30
2022-12-04T22:00:25.031Z,3.30
2022-12-04T22:02:53.627Z,3.30
2022-12-04T22:05:22.094Z,3.30
2022-12-04T22:07:50.537Z,3.40
2022-12-04T22:10:19.246Z,3.40
2022-12-04T22:12:49.928Z,3.40
2022-12-04T22:15:19.049Z,3.40
2022-12-04T22:17:48.937Z,3.40
2022-12-04T22:20:18.139Z,3.40
2022-12-04T22:22:46.686Z,3.40
2022-12-04T22:25:16.190Z,3.40
2022-12-04T22:27:44.716Z,3.40
2022-12-04T22:30:14.302Z,3.40
2022-12-04T22:32:43.173Z,3.40
2022-12-04T22:35:13.191Z,3.40
2022-12-04T22:37:44.566Z,3.40
2022-12-04T22:40:14.810Z,3.40
2022-12-04T22:42:43.450Z,3.50
2022-12-04T22:45:12.629Z,3.40
2022-12-04T22:47:41.400Z,3.40
2022-12-04T22:50:11.250Z,3.40
2022-12-04T22:52:41.207Z,3.30
2022-12-04T22:55:10.130Z,3.40
2022-12-04T22:57:38.416Z,3.40
2022-12-04T23:00:09.417Z,3.40
2022-12-04T23:02:38.003Z,3.50
2022-12-04T23:05:06.818Z,3.40
2022-12-04T23:07:35.449Z,3.40
2022-12-04T23:10:06.297Z,3.30
2022-12-04T23:12:38.856Z,3.40
2022-12-04T23:15:08.423Z,3.40
2022-12-04T23:17:36.936Z,3.50
2022-12-04T23:20:05.861Z,3.50
2022-12-04T23:22:34.248Z,3.50
2022-12-04T23:25:03.305Z,3.50
2022-12-04T23:27:34.041Z,3.50
2022-12-04T23:30:02.545Z,3.50
2022-12-04T23:32:30.949Z,3.60
2022-12-04T23:34:59.332Z,3.50
2022-12-04T23:37:28.074Z,3.50
2022-12-04T23:39:56.945Z,3.50
2022-12-04T23:42:25.680Z,3.50
2022-12-04T23:44:55.506Z,3.50
2022-12-04T23:47:23.933Z,3.50
2022-12-04T23:49:54.721Z,3.40
2022-12-04T23:52:23.418Z,3.40
2022-12-04T23:54:51.837Z,3.40
2022-12-04T23:57:20.313Z,3.50
2022-12-04T23:59:48.724Z,3.50
